Terminal Aerodrome Forecast
Issued by NWS El Paso, TX

Home | Current Version | Previous Version | Text Only | Print | Product List | Glossary On
Versions: 1 2 3 4 5 6 7 8 9 10 11 12 13 14 15
000
FTUS44 KEPZ 291755 CCA
TAFELP
TAF COR
KELP 291755Z 2918/3018 08008KT P6SM SCT070 SCT100 SCT200
     FM292100 10010KT P6SM VCTS SCT060CB BKN120 BKN200
      TEMPO 3000/3004 VRB25G40KT 3SM TSRA BKN040CB OVC100
     FM300900 35007KT P6SM SCT050 BKN080 BKN200
     FM301700 12008KT P6SM FEW050 BKN120=

USA.gov is the U.S. government's official web portal to all federal, state and local government web resources and services.